Warsaw, Poland

10:39 PM CET on December 09, 2016 (GMT +0100)
Kłobucka | | Change Station

Elev 0 ft 52.17 °N, 20.99 °E | Updated 6 minutes ago

Mostly Cloudy
Mostly Cloudy
45.1 °F
Feels Like 42 °F
N
5.6
Wind Variable Wind from WSW
Gusts 9.3 mph

Today
High -- | Low -- °F
--% Chance of Precip.
Yesterday
High -- | Low -- °F
Precip. -- in
Pressure 30.06 in
Visibility 6.2 miles
Clouds Mostly Cloudy 1800 ft
Windchill 42 °F
Dew Point 43 °F
Humidity 92%
Rainfall 0.01 in
Snow Depth Not available.
7:33 AM 3:23 PM
Waxing Gibbous, 77% visible
METAR EPWA 092130Z 28009KT 9999 BKN018 08/05 Q1018 NOSIG
Pressure 30.06 in
Visibility 6.2 miles
Clouds Mostly Cloudy 1800 ft
Windchill 42 °F
Dew Point 43 °F
Humidity 92%
Rainfall 0.01 in
Snow Depth Not available.
7:33 AM 3:23 PM
Waxing Gibbous, 77% visible
METAR EPWA 092130Z 28009KT 9999 BKN018 08/05 Q1018 NOSIG

10-Day Weather Forecast

×

Almanac

Astronomy

Dec. 09, 2016 Rise Set
Actual Time
Civil Twilight
Nautical Twilight
Astronomical Twilight
Moon
Length of Visible Light
Length of Day
Tomorrow will be .
, % of the Moon is Illuminated

Today's Extremes

Country Highs Country Lows

Community

WunderPhotos

Upload Photos

1,956,517 photos uploaded!

WunderBlog® & News

Nearby

Air Quality

  Air Quality AQ Index Pollutant
Not available.

Snow Depth

Station Depth Elevation

Earthquake Activity

City Distance Mag. Time & Date
Minimum magnitude displayed is 2.5.

Coastal Water Temperatures

Place Temperature

Stations

Nearby Weather Stations

Station Location Temp. Windchill Dew Point Humidity Wind Precip. Elev Updated Type